sensor_id;sensor_type;location;lat;lon;timestamp;pressure;altitude;pressure_sealevel;temperature;humidity
60337;BME280;46978;50.288;28.624;2023-04-29T00:00:15;99251.19;;;-1.19;88.25
60337;BME280;46978;50.288;28.624;2023-04-29T00:01:17;99246.91;;;-1.20;88.08
60337;BME280;46978;50.288;28.624;2023-04-29T00:02:18;99252.84;;;-1.19;88.10
60337;BME280;46978;50.288;28.624;2023-04-29T00:03:20;99242.62;;;-1.21;88.07
60337;BME280;46978;50.288;28.624;2023-04-29T00:04:22;99250.30;;;-1.19;87.75
60337;BME280;46978;50.288;28.624;2023-04-29T00:05:23;99251.19;;;-1.19;86.11
60337;BME280;46978;50.288;28.624;2023-04-29T00:06:25;99252.03;;;-1.18;85.66
60337;BME280;46978;50.288;28.624;2023-04-29T00:07:27;99252.89;;;-1.18;85.78
60337;BME280;46978;50.288;28.624;2023-04-29T00:08:28;99252.03;;;-1.18;85.46
60337;BME280;46978;50.288;28.624;2023-04-29T00:09:30;99247.80;;;-1.18;85.38
60337;BME280;46978;50.288;28.624;2023-04-29T00:10:32;99246.13;;;-1.17;85.53
60337;BME280;46978;50.288;28.624;2023-04-29T00:11:33;99246.98;;;-1.17;86.14
60337;BME280;46978;50.288;28.624;2023-04-29T00:12:35;99250.34;;;-1.18;85.78
60337;BME280;46978;50.288;28.624;2023-04-29T00:13:37;99253.77;;;-1.17;85.53
60337;BME280;46978;50.288;28.624;2023-04-29T00:14:39;99249.49;;;-1.18;85.26
60337;BME280;46978;50.288;28.624;2023-04-29T00:15:41;99252.84;;;-1.19;85.28
60337;BME280;46978;50.288;28.624;2023-04-29T00:16:42;99247.72;;;-1.21;85.20
60337;BME280;46978;50.288;28.624;2023-04-29T00:17:44;99248.59;;;-1.20;84.92
60337;BME280;46978;50.288;28.624;2023-04-29T00:18:45;99248.55;;;-1.22;85.30
60337;BME280;46978;50.288;28.624;2023-04-29T00:19:47;99240.88;;;-1.23;85.66
60337;BME280;46978;50.288;28.624;2023-04-29T00:20:49;99251.06;;;-1.23;85.45
60337;BME280;46978;50.288;28.624;2023-04-29T00:21:50;99245.92;;;-1.25;85.30
60337;BME280;46978;50.288;28.624;2023-04-29T00:22:52;99250.98;;;-1.27;85.89
60337;BME280;46978;50.288;28.624;2023-04-29T00:23:54;99250.05;;;-1.29;86.87
60337;BME280;46978;50.288;28.624;2023-04-29T00:24:55;99250.89;;;-1.30;87.81
60337;BME280;46978;50.288;28.624;2023-04-29T00:25:57;99245.80;;;-1.30;88.44
60337;BME280;46978;50.288;28.624;2023-04-29T00:26:58;99250.85;;;-1.31;88.32
60337;BME280;46978;50.288;28.624;2023-04-29T00:28:00;99252.50;;;-1.33;88.54
60337;BME280;46978;50.288;28.624;2023-04-29T00:29:02;99247.33;;;-1.36;88.50
60337;BME280;46978;50.288;28.624;2023-04-29T00:30:06;99247.28;;;-1.38;89.17
60337;BME280;46978;50.288;28.624;2023-04-29T00:31:08;99247.20;;;-1.41;88.96
60337;BME280;46978;50.288;28.624;2023-04-29T00:32:10;99244.56;;;-1.44;88.72
60337;BME280;46978;50.288;28.624;2023-04-29T00:33:13;99247.02;;;-1.47;88.66
60337;BME280;46978;50.288;28.624;2023-04-29T00:34:14;99246.09;;;-1.49;89.13
60337;BME280;46978;50.288;28.624;2023-04-29T00:35:16;99247.75;;;-1.51;89.03
60337;BME280;46978;50.288;28.624;2023-04-29T00:36:18;99247.70;;;-1.53;88.81
60337;BME280;46978;50.288;28.624;2023-04-29T00:37:19;99251.05;;;-1.54;88.54
60337;BME280;46978;50.288;28.624;2023-04-29T00:38:21;99241.67;;;-1.56;88.28
60337;BME280;46978;50.288;28.624;2023-04-29T00:39:23;99250.12;;;-1.57;88.26
60337;BME280;46978;50.288;28.624;2023-04-29T00:40:27;99252.66;;;-1.57;88.48
60337;BME280;46978;50.288;28.624;2023-04-29T00:41:29;99253.55;;;-1.55;88.31
60337;BME280;46978;50.288;28.624;2023-04-29T00:42:31;99245.11;;;-1.54;88.11
60337;BME280;46978;50.288;28.624;2023-04-29T00:43:32;99243.42;;;-1.54;87.83
60337;BME280;46978;50.288;28.624;2023-04-29T00:44:34;99247.70;;;-1.53;87.79
60337;BME280;46978;50.288;28.624;2023-04-29T00:45:36;99243.42;;;-1.54;87.30
60337;BME280;46978;50.288;28.624;2023-04-29T00:46:37;99248.47;;;-1.55;87.22
60337;BME280;46978;50.288;28.624;2023-04-29T00:47:39;99246.77;;;-1.56;87.16
60337;BME280;46978;50.288;28.624;2023-04-29T00:48:41;99240.79;;;-1.57;87.43
60337;BME280;46978;50.288;28.624;2023-04-29T00:49:42;99245.03;;;-1.57;87.42
60337;BME280;46978;50.288;28.624;2023-04-29T00:50:44;99247.53;;;-1.59;87.55
60337;BME280;46978;50.288;28.624;2023-04-29T00:51:46;99253.47;;;-1.58;87.96
60337;BME280;46978;50.288;28.624;2023-04-29T00:52:48;99245.79;;;-1.60;88.20
60337;BME280;46978;50.288;28.624;2023-04-29T00:53:50;99249.13;;;-1.63;88.11
60337;BME280;46978;50.288;28.624;2023-04-29T00:54:52;99255.97;;;-1.60;87.82
60337;BME280;46978;50.288;28.624;2023-04-29T00:55:55;99254.27;;;-1.61;88.05
60337;BME280;46978;50.288;28.624;2023-04-29T00:56:57;99252.48;;;-1.64;88.10
60337;BME280;46978;50.288;28.624;2023-04-29T00:58:00;99254.17;;;-1.64;88.49
60337;BME280;46978;50.288;28.624;2023-04-29T00:59:02;99255.84;;;-1.65;89.10
60337;BME280;46978;50.288;28.624;2023-04-29T01:00:05;99255.79;;;-1.66;89.53
60337;BME280;46978;50.288;28.624;2023-04-29T01:01:07;99256.59;;;-1.69;89.59
60337;BME280;46978;50.288;28.624;2023-04-29T01:02:08;99252.30;;;-1.70;89.71
60337;BME280;46978;50.288;28.624;2023-04-29T01:03:10;99254.77;;;-1.73;89.54
60337;BME280;46978;50.288;28.624;2023-04-29T01:04:12;99260.66;;;-1.74;90.10
60337;BME280;46978;50.288;28.624;2023-04-29T01:05:14;99263.99;;;-1.76;90.54
60337;BME280;46978;50.288;28.624;2023-04-29T01:09:15;99258.81;;;-1.79;91.69
60337;BME280;46978;50.288;28.624;2023-04-29T01:10:28;99265.56;;;-1.80;91.83
60337;BME280;46978;50.288;28.624;2023-04-29T01:11:39;99260.38;;;-1.83;91.92
60337;BME280;46978;50.288;28.624;2023-04-29T01:13:52;99259.44;;;-1.87;92.33
60337;BME280;46978;50.288;28.624;2023-04-29T01:16:20;99260.20;;;-1.89;92.77
60337;BME280;46978;50.288;28.624;2023-04-29T01:17:24;99262.65;;;-1.92;92.89
60337;BME280;46978;50.288;28.624;2023-04-29T01:18:33;99263.44;;;-1.95;92.81
60337;BME280;46978;50.288;28.624;2023-04-29T01:19:54;99265.94;;;-1.96;92.86
60337;BME280;46978;50.288;28.624;2023-04-29T01:20:57;99262.42;;;-2.00;92.87
60337;BME280;46978;50.288;28.624;2023-04-29T01:21:59;99263.25;;;-2.01;93.59
60337;BME280;46978;50.288;28.624;2023-04-29T01:23:00;99260.66;;;-2.03;94.45
60337;BME280;46978;50.288;28.624;2023-04-29T01:24:02;99257.19;;;-2.05;94.67
60337;BME280;46978;50.288;28.624;2023-04-29T01:25:05;99263.06;;;-2.07;94.55
60337;BME280;46978;50.288;28.624;2023-04-29T01:26:07;99264.67;;;-2.09;94.08
60337;BME280;46978;50.288;28.624;2023-04-29T01:27:27;99263.73;;;-2.13;93.66
60337;BME280;46978;50.288;28.624;2023-04-29T01:29:43;99259.35;;;-2.17;93.37
60337;BME280;46978;50.288;28.624;2023-04-29T01:30:55;99265.23;;;-2.20;93.39
60337;BME280;46978;50.288;28.624;2023-04-29T01:32:05;99266.03;;;-2.21;93.74
60337;BME280;46978;50.288;28.624;2023-04-29T01:33:22;99265.18;;;-2.21;94.09
60337;BME280;46978;50.288;28.624;2023-04-29T01:34:33;99265.18;;;-2.21;94.33
60337;BME280;46978;50.288;28.624;2023-04-29T01:38:59;99274.31;;;-2.26;93.66
60337;BME280;46978;50.288;28.624;2023-04-29T01:39:59;99279.30;;;-2.29;93.37
60337;BME280;46978;50.288;28.624;2023-04-29T01:42:38;99268.14;;;-2.35;94.57
60337;BME280;46978;50.288;28.624;2023-04-29T01:43:41;99279.94;;;-2.37;94.45
60337;BME280;46978;50.288;28.624;2023-04-29T01:44:44;99279.84;;;-2.40;94.66
60337;BME280;46978;50.288;28.624;2023-04-29T01:45:48;99284.09;;;-2.39;94.89
60337;BME280;46978;50.288;28.624;2023-04-29T01:46:51;99283.13;;;-2.42;94.50
60337;BME280;46978;50.288;28.624;2023-04-29T01:47:54;99283.13;;;-2.42;94.50
60337;BME280;46978;50.288;28.624;2023-04-29T01:48:56;99282.23;;;-2.44;94.19
60337;BME280;46978;50.288;28.624;2023-04-29T01:49:57;99284.72;;;-2.46;94.40
60337;BME280;46978;50.288;28.624;2023-04-29T01:50:59;99288.92;;;-2.46;95.11
60337;BME280;46978;50.288;28.624;2023-04-29T01:52:00;99282.98;;;-2.47;95.58
60337;BME280;46978;50.288;28.624;2023-04-29T01:53:02;99281.30;;;-2.46;96.12
60337;BME280;46978;50.288;28.624;2023-04-29T01:54:03;99285.58;;;-2.45;96.53
60337;BME280;46978;50.288;28.624;2023-04-29T01:55:06;99289.86;;;-2.44;96.73
60337;BME280;46978;50.288;28.624;2023-04-29T01:56:08;99282.23;;;-2.44;96.72
60337;BME280;46978;50.288;28.624;2023-04-29T01:57:10;99280.49;;;-2.45;96.54
60337;BME280;46978;50.288;28.624;2023-04-29T01:58:11;99287.22;;;-2.47;96.07
60337;BME280;46978;50.288;28.624;2023-04-29T01:59:13;99287.16;;;-2.49;96.17
60337;BME280;46978;50.288;28.624;2023-04-29T02:00:17;99279.59;;;-2.47;96.59
60337;BME280;46978;50.288;28.624;2023-04-29T02:01:18;99286.33;;;-2.48;96.35
60337;BME280;46978;50.288;28.624;2023-04-29T02:02:20;99283.73;;;-2.49;96.38
60337;BME280;46978;50.288;28.624;2023-04-29T02:03:22;99287.16;;;-2.49;96.41
60337;BME280;46978;50.288;28.624;2023-04-29T02:04:24;99286.33;;;-2.48;96.76
60337;BME280;46978;50.288;28.624;2023-04-29T02:05:25;99288.02;;;-2.48;96.85
60337;BME280;46978;50.288;28.624;2023-04-29T02:06:27;99293.15;;;-2.47;96.91
60337;BME280;46978;50.288;28.624;2023-04-29T02:07:29;99294.84;;;-2.47;96.89
60337;BME280;46978;50.288;28.624;2023-04-29T02:08:30;99294.78;;;-2.49;96.84
60337;BME280;46978;50.288;28.624;2023-04-29T02:09:32;99292.25;;;-2.49;96.83
60337;BME280;46978;50.288;28.624;2023-04-29T02:10:34;99297.33;;;-2.49;96.83
60337;BME280;46978;50.288;28.624;2023-04-29T02:11:35;99296.39;;;-2.51;96.45
60337;BME280;46978;50.288;28.624;2023-04-29T02:12:37;99295.53;;;-2.52;96.37
60337;BME280;46978;50.288;28.624;2023-04-29T02:13:39;99292.09;;;-2.54;96.40
60337;BME280;46978;50.288;28.624;2023-04-29T02:14:40;99293.70;;;-2.56;96.32
60337;BME280;46978;50.288;28.624;2023-04-29T02:15:42;99295.38;;;-2.56;96.42
60337;BME280;46978;50.288;28.624;2023-04-29T02:16:44;99292.84;;;-2.56;96.93
60337;BME280;46978;50.288;28.624;2023-04-29T02:17:46;99306.34;;;-2.57;96.75
60337;BME280;46978;50.288;28.624;2023-04-29T02:18:47;99290.20;;;-2.59;96.54
60337;BME280;46978;50.288;28.624;2023-04-29T02:19:49;99292.74;;;-2.59;96.87
60337;BME280;46978;50.288;28.624;2023-04-29T02:20:58;99302.91;;;-2.59;97.22
60337;BME280;46978;50.288;28.624;2023-04-29T02:21:56;99301.16;;;-2.60;97.26
60337;BME280;46978;50.288;28.624;2023-04-29T02:22:57;99302.85;;;-2.61;97.41
60337;BME280;46978;50.288;28.624;2023-04-29T02:23:59;99296.02;;;-2.63;97.12
60337;BME280;46978;50.288;28.624;2023-04-29T02:25:01;99295.08;;;-2.65;96.31
60337;BME280;46978;50.288;28.624;2023-04-29T02:26:03;99301.80;;;-2.67;96.05
60337;BME280;46978;50.288;28.624;2023-04-29T02:27:05;99302.55;;;-2.70;96.35
60337;BME280;46978;50.288;28.624;2023-04-29T02:28:06;99303.38;;;-2.71;96.38
60337;BME280;46978;50.288;28.624;2023-04-29T02:29:08;99299.09;;;-2.72;96.45
60337;BME280;46978;50.288;28.624;2023-04-29T02:30:10;99299.90;;;-2.73;96.48
60337;BME280;46978;50.288;28.624;2023-04-29T02:31:12;99300.73;;;-2.74;96.35
60337;BME280;46978;50.288;28.624;2023-04-29T02:32:13;99307.41;;;-2.76;95.87
60337;BME280;46978;50.288;28.624;2023-04-29T02:33:15;99302.28;;;-2.78;95.58
60337;BME280;46978;50.288;28.624;2023-04-29T02:34:17;99306.45;;;-2.80;95.48
60337;BME280;46978;50.288;28.624;2023-04-29T02:35:18;99299.64;;;-2.81;95.97
60337;BME280;46978;50.288;28.624;2023-04-29T02:36:20;99297.09;;;-2.81;96.34
60337;BME280;46978;50.288;28.624;2023-04-29T02:37:22;99302.28;;;-2.78;96.57
60337;BME280;46978;50.288;28.624;2023-04-29T02:38:24;99306.50;;;-2.78;97.06
60337;BME280;46978;50.288;28.624;2023-04-29T02:39:25;99297.20;;;-2.78;97.91
60337;BME280;46978;50.288;28.624;2023-04-29T02:40:27;99300.78;;;-2.73;99.64
60337;BME280;46978;50.288;28.624;2023-04-29T02:41:29;99306.77;;;-2.71;100.00
60337;BME280;46978;50.288;28.624;2023-04-29T02:42:31;99296.55;;;-2.72;99.64
60337;BME280;46978;50.288;28.624;2023-04-29T02:43:32;99310.00;;;-2.75;98.64
60337;BME280;46978;50.288;28.624;2023-04-29T02:44:34;99301.48;;;-2.77;98.21
60337;BME280;46978;50.288;28.624;2023-04-29T02:45:36;99301.42;;;-2.78;97.90
60337;BME280;46978;50.288;28.624;2023-04-29T02:46:38;99305.66;;;-2.79;97.34
60337;BME280;46978;50.288;28.624;2023-04-29T02:47:40;99310.68;;;-2.80;97.22
60337;BME280;46978;50.288;28.624;2023-04-29T02:48:41;99308.99;;;-2.80;97.23
60337;BME280;46978;50.288;28.624;2023-04-29T02:49:43;99304.72;;;-2.81;97.04
60337;BME280;46978;50.288;28.624;2023-04-29T02:50:44;99303.06;;;-2.80;97.50
60337;BME280;46978;50.288;28.624;2023-04-29T02:51:46;99304.77;;;-2.79;97.37
60337;BME280;46978;50.288;28.624;2023-04-29T02:52:48;99308.99;;;-2.80;97.33
60337;BME280;46978;50.288;28.624;2023-04-29T02:53:49;99303.91;;;-2.80;97.16
60337;BME280;46978;50.288;28.624;2023-04-29T02:54:51;99309.05;;;-2.78;97.46
60337;BME280;46978;50.288;28.624;2023-04-29T02:55:53;99314.98;;;-2.78;97.05
60337;BME280;46978;50.288;28.624;2023-04-29T02:56:54;99313.33;;;-2.77;96.61
60337;BME280;46978;50.288;28.624;2023-04-29T02:57:56;99317.63;;;-2.75;96.68
60337;BME280;46978;50.288;28.624;2023-04-29T02:58:58;99319.47;;;-2.71;96.94
60337;BME280;46978;50.288;28.624;2023-04-29T02:59:59;99316.28;;;-2.65;96.38
60337;BME280;46978;50.288;28.624;2023-04-29T03:01:01;99319.05;;;-2.57;96.93
60337;BME280;46978;50.288;28.624;2023-04-29T03:02:03;99327.86;;;-2.47;97.24
60337;BME280;46978;50.288;28.624;2023-04-29T03:03:04;99323.14;;;-2.37;97.41
60337;BME280;46978;50.288;28.624;2023-04-29T03:04:06;99323.49;;;-2.26;97.85
60337;BME280;46978;50.288;28.624;2023-04-29T03:05:08;99317.81;;;-2.17;98.06
60337;BME280;46978;50.288;28.624;2023-04-29T03:06:10;99322.30;;;-2.10;97.85
60337;BME280;46978;50.288;28.624;2023-04-29T03:07:11;99321.78;;;-2.00;97.31
60337;BME280;46978;50.288;28.624;2023-04-29T03:08:13;99317.84;;;-1.90;96.99
60337;BME280;46978;50.288;28.624;2023-04-29T03:09:15;99324.11;;;-1.78;96.92
60337;BME280;46978;50.288;28.624;2023-04-29T03:10:16;99325.32;;;-1.67;96.70
60337;BME280;46978;50.288;28.624;2023-04-29T03:11:18;99322.16;;;-1.58;96.17
60337;BME280;46978;50.288;28.624;2023-04-29T03:12:20;99323.37;;;-1.47;95.84
60337;BME280;46978;50.288;28.624;2023-04-29T03:13:22;99329.76;;;-1.31;95.78
60337;BME280;46978;50.288;28.624;2023-04-29T03:14:24;99325.15;;;-1.14;95.59
60337;BME280;46978;50.288;28.624;2023-04-29T03:15:25;99332.50;;;-0.93;94.83
60337;BME280;46978;50.288;28.624;2023-04-29T03:16:27;99333.97;;;-0.71;93.96
60337;BME280;46978;50.288;28.624;2023-04-29T03:17:28;99330.24;;;-0.50;93.96
60337;BME280;46978;50.288;28.624;2023-04-29T03:18:30;99329.05;;;-0.30;93.52
60337;BME280;46978;50.288;28.624;2023-04-29T03:19:32;99315.13;;;-0.09;92.60
60337;BME280;46978;50.288;28.624;2023-04-29T03:20:33;99333.38;;;0.09;91.83
60337;BME280;46978;50.288;28.624;2023-04-29T03:21:35;99327.00;;;0.27;91.05
60337;BME280;46978;50.288;28.624;2023-04-29T03:22:37;99323.94;;;0.43;90.23
60337;BME280;46978;50.288;28.624;2023-04-29T03:23:38;99329.50;;;0.65;88.94
60337;BME280;46978;50.288;28.624;2023-04-29T03:24:40;99326.48;;;0.83;87.38
60337;BME280;46978;50.288;28.624;2023-04-29T03:25:42;99328.65;;;1.05;87.30
60337;BME280;46978;50.288;28.624;2023-04-29T03:26:43;99335.02;;;1.28;85.80
60337;BME280;46978;50.288;28.624;2023-04-29T03:27:45;99328.59;;;1.50;85.60
60337;BME280;46978;50.288;28.624;2023-04-29T03:28:47;99331.63;;;1.77;85.01
60337;BME280;46978;50.288;28.624;2023-04-29T03:29:48;99327.81;;;2.06;84.08
60337;BME280;46978;50.288;28.624;2023-04-29T03:31:10;99328.25;;;2.35;83.20
60337;BME280;46978;50.288;28.624;2023-04-29T03:32:12;99314.02;;;2.54;82.07
60337;BME280;46978;50.288;28.624;2023-04-29T03:33:13;99323.27;;;3.12;77.75
60337;BME280;46978;50.288;28.624;2023-04-29T03:34:15;99323.27;;;3.12;77.75
60337;BME280;46978;50.288;28.624;2023-04-29T03:35:17;99326.84;;;3.28;77.30
60337;BME280;46978;50.288;28.624;2023-04-29T03:36:18;99318.48;;;3.46;76.10
60337;BME280;46978;50.288;28.624;2023-04-29T03:37:20;99318.59;;;3.56;73.27
60337;BME280;46978;50.288;28.624;2023-04-29T03:38:21;99328.91;;;3.63;72.06
60337;BME280;46978;50.288;28.624;2023-04-29T03:39:23;99325.60;;;3.77;72.74
60337;BME280;46978;50.288;28.624;2023-04-29T03:40:25;99329.19;;;3.93;72.59
60337;BME280;46978;50.288;28.624;2023-04-29T03:41:26;99330.98;;;4.08;71.03
60337;BME280;46978;50.288;28.624;2023-04-29T03:42:28;99330.23;;;4.22;71.37
60337;BME280;46978;50.288;28.624;2023-04-29T03:43:30;99329.46;;;4.37;70.93
60337;BME280;46978;50.288;28.624;2023-04-29T03:44:31;99337.25;;;4.51;70.09
60337;BME280;46978;50.288;28.624;2023-04-29T03:45:34;99330.53;;;4.70;69.84
60337;BME280;46978;50.288;28.624;2023-04-29T03:46:35;99333.20;;;4.93;69.07
60337;BME280;46978;50.288;28.624;2023-04-29T03:47:37;99332.39;;;5.11;67.89
60337;BME280;46978;50.288;28.624;2023-04-29T03:48:39;99326.44;;;5.19;66.13
60337;BME280;46978;50.288;28.624;2023-04-29T03:49:40;99326.45;;;5.27;65.15
60337;BME280;46978;50.288;28.624;2023-04-29T03:50:42;99324.73;;;5.29;63.97
60337;BME280;46978;50.288;28.624;2023-04-29T03:51:44;99329.05;;;5.35;63.66
60337;BME280;46978;50.288;28.624;2023-04-29T03:52:45;99329.91;;;5.38;63.03
60337;BME280;46978;50.288;28.624;2023-04-29T03:53:47;99335.06;;;5.43;63.19
60337;BME280;46978;50.288;28.624;2023-04-29T03:54:49;99328.20;;;5.48;63.21
60337;BME280;46978;50.288;28.624;2023-04-29T03:55:51;99335.09;;;5.60;63.60
60337;BME280;46978;50.288;28.624;2023-04-29T03:56:53;99324.81;;;5.69;62.67
60337;BME280;46978;50.288;28.624;2023-04-29T03:57:55;99329.97;;;5.75;62.43
60337;BME280;46978;50.288;28.624;2023-04-29T03:58:56;99324.82;;;5.86;62.82
60337;BME280;46978;50.288;28.624;2023-04-29T03:59:58;99334.31;;;6.04;62.87
60337;BME280;46978;50.288;28.624;2023-04-29T04:01:00;99330.00;;;6.19;61.44
60337;BME280;46978;50.288;28.624;2023-04-29T04:02:01;99330.84;;;6.28;61.35
60337;BME280;46978;50.288;28.624;2023-04-29T04:03:03;99337.70;;;6.42;61.38
60337;BME280;46978;50.288;28.624;2023-04-29T04:04:05;99330.78;;;6.58;61.06
60337;BME280;46978;50.288;28.624;2023-04-29T04:05:07;99336.75;;;6.72;60.57
60337;BME280;46978;50.288;28.624;2023-04-29T04:06:09;99338.42;;;6.89;59.67
60337;BME280;46978;50.288;28.624;2023-04-29T04:07:10;99330.65;;;6.99;58.62
60337;BME280;46978;50.288;28.624;2023-04-29T04:08:12;99339.19;;;7.11;58.60
60337;BME280;46978;50.288;28.624;2023-04-29T04:09:13;99341.72;;;7.22;58.11
60337;BME280;46978;50.288;28.624;2023-04-29T04:10:15;99338.25;;;7.30;57.55
60337;BME280;46978;50.288;28.624;2023-04-29T04:11:17;99339.97;;;7.33;56.80
60337;BME280;46978;50.288;28.624;2023-04-29T04:12:19;99352.84;;;7.39;57.05
60337;BME280;46978;50.288;28.624;2023-04-29T04:13:20;99332.98;;;7.49;57.24
60337;BME280;46978;50.288;28.624;2023-04-29T04:14:22;99340.63;;;7.64;56.88
60337;BME280;46978;50.288;28.624;2023-04-29T04:15:23;99343.98;;;7.76;56.38
60337;BME280;46978;50.288;28.624;2023-04-29T04:16:25;99342.23;;;7.84;56.07
60337;BME280;46978;50.288;28.624;2023-04-29T04:17:27;99333.54;;;7.91;55.47
60337;BME280;46978;50.288;28.624;2023-04-29T04:18:28;99339.49;;;7.99;55.07
60337;BME280;46978;50.288;28.624;2023-04-29T04:19:30;99342.97;;;7.98;53.28
60337;BME280;46978;50.288;28.624;2023-04-29T04:20:32;99342.23;;;7.84;50.28
60337;BME280;46978;50.288;28.624;2023-04-29T04:21:34;99339.73;;;7.71;49.80
60337;BME280;46978;50.288;28.624;2023-04-29T04:22:36;99346.63;;;7.66;50.67
60337;BME280;46978;50.288;28.624;2023-04-29T04:23:38;99340.59;;;7.70;51.37
60337;BME280;46978;50.288;28.624;2023-04-29T04:24:40;99338.80;;;7.79;51.63
60337;BME280;46978;50.288;28.624;2023-04-29T04:25:46;99346.55;;;7.77;50.02
60337;BME280;46978;50.288;28.624;2023-04-29T04:26:48;99345.70;;;7.77;50.00
60337;BME280;46978;50.288;28.624;2023-04-29T04:27:49;99343.98;;;7.76;50.71
60337;BME280;46978;50.288;28.624;2023-04-29T04:28:51;99347.41;;;7.81;52.03
60337;BME280;46978;50.288;28.624;2023-04-29T04:29:53;99344.72;;;7.92;51.19
60337;BME280;46978;50.288;28.624;2023-04-29T04:30:55;99354.95;;;8.05;51.26
60337;BME280;46978;50.288;28.624;2023-04-29T04:31:57;99346.31;;;8.10;49.90
60337;BME280;46978;50.288;28.624;2023-04-29T04:32:58;99346.34;;;8.05;49.11
60337;BME280;46978;50.288;28.624;2023-04-29T04:34:00;99349.85;;;7.96;48.64
60337;BME280;46978;50.288;28.624;2023-04-29T04:35:02;99355.20;;;7.75;48.92
60337;BME280;46978;50.288;28.624;2023-04-29T04:36:04;99357.09;;;7.45;48.93
60337;BME280;46978;50.288;28.624;2023-04-29T04:37:06;99355.42;;;7.39;49.90
60337;BME280;46978;50.288;28.624;2023-04-29T04:38:08;99361.39;;;7.47;50.82
60337;BME280;46978;50.288;28.624;2023-04-29T04:39:10;99365.66;;;7.54;50.14
60337;BME280;46978;50.288;28.624;2023-04-29T04:40:12;99364.78;;;7.54;50.09
60337;BME280;46978;50.288;28.624;2023-04-29T04:41:14;99358.88;;;7.33;49.86
60337;BME280;46978;50.288;28.624;2023-04-29T04:42:15;99358.88;;;7.33;49.86
60337;BME280;46978;50.288;28.624;2023-04-29T04:43:17;99363.23;;;7.25;49.96
60337;BME280;46978;50.288;28.624;2023-04-29T04:44:19;99362.39;;;7.15;50.46
60337;BME280;46978;50.288;28.624;2023-04-29T04:45:20;99362.47;;;6.97;50.42
60337;BME280;46978;50.288;28.624;2023-04-29T04:46:22;99362.48;;;6.89;51.10
60337;BME280;46978;50.288;28.624;2023-04-29T04:47:24;99363.34;;;6.97;52.41
60337;BME280;46978;50.288;28.624;2023-04-29T04:48:25;99359.86;;;7.05;52.37
60337;BME280;46978;50.288;28.624;2023-04-29T04:49:27;99361.57;;;7.09;51.51
60337;BME280;46978;50.288;28.624;2023-04-29T04:50:29;99359.84;;;7.09;51.34
60337;BME280;46978;50.288;28.624;2023-04-29T04:51:31;99361.59;;;7.04;51.91
60337;BME280;46978;50.288;28.624;2023-04-29T04:52:32;99365.92;;;6.97;51.33
60337;BME280;46978;50.288;28.624;2023-04-29T04:53:34;99360.81;;;6.82;52.01
60337;BME280;46978;50.288;28.624;2023-04-29T04:54:36;99362.51;;;6.83;51.85
60337;BME280;46978;50.288;28.624;2023-04-29T04:55:37;99355.66;;;6.80;51.98
60337;BME280;46978;50.288;28.624;2023-04-29T04:56:39;99351.38;;;6.72;51.58
60337;BME280;46978;50.288;28.624;2023-04-29T04:57:40;99352.22;;;6.72;52.14
60337;BME280;46978;50.288;28.624;2023-04-29T04:58:42;99356.53;;;6.70;51.81
60337;BME280;46978;50.288;28.624;2023-04-29T04:59:44;99353.13;;;6.63;51.44
60337;BME280;46978;50.288;28.624;2023-04-29T05:00:46;99357.41;;;6.61;52.04
60337;BME280;46978;50.288;28.624;2023-04-29T05:01:47;99350.55;;;6.59;51.36
60337;BME280;46978;50.288;28.624;2023-04-29T05:02:49;99359.14;;;6.58;51.66
60337;BME280;46978;50.288;28.624;2023-04-29T05:03:50;99357.41;;;6.60;51.89
60337;BME280;46978;50.288;28.624;2023-04-29T05:04:52;99347.97;;;6.63;51.61
60337;BME280;46978;50.288;28.624;2023-04-29T05:05:58;99351.39;;;6.66;52.14
60337;BME280;46978;50.288;28.624;2023-04-29T05:07:01;99359.11;;;6.72;51.95
60337;BME280;46978;50.288;28.624;2023-04-29T05:08:03;99357.37;;;6.77;51.63
60337;BME280;46978;50.288;28.624;2023-04-29T05:09:04;99359.93;;;6.83;52.04
60337;BME280;46978;50.288;28.624;2023-04-29T05:10:07;99353.04;;;6.93;51.33
60337;BME280;46978;50.288;28.624;2023-04-29T05:11:17;99353.04;;;6.93;51.33
60337;BME280;46978;50.288;28.624;2023-04-29T05:12:19;99359.86;;;7.03;51.84
60337;BME280;46978;50.288;28.624;2023-04-29T05:13:20;99358.13;;;7.13;50.61
60337;BME280;46978;50.288;28.624;2023-04-29T05:14:22;99352.95;;;7.16;50.38
60337;BME280;46978;50.288;28.624;2023-04-29T05:15:24;99358.08;;;7.22;49.67
60337;BME280;46978;50.288;28.624;2023-04-29T05:16:25;99362.36;;;7.22;49.16
60337;BME280;46978;50.288;28.624;2023-04-29T05:17:27;99355.51;;;7.21;49.45
60337;BME280;46978;50.288;28.624;2023-04-29T05:18:29;99363.25;;;7.22;50.04
60337;BME280;46978;50.288;28.624;2023-04-29T05:19:31;99356.34;;;7.24;49.92
60337;BME280;46978;50.288;28.624;2023-04-29T05:20:32;99358.05;;;7.28;49.64
60337;BME280;46978;50.288;28.624;2023-04-29T05:21:34;99357.16;;;7.31;49.89
60337;BME280;46978;50.288;28.624;2023-04-29T05:22:36;99362.30;;;7.34;49.50
60337;BME280;46978;50.288;28.624;2023-04-29T05:23:37;99358.02;;;7.36;48.67
60337;BME280;46978;50.288;28.624;2023-04-29T05:24:39;99357.12;;;7.37;48.77
60337;BME280;46978;50.288;28.624;2023-04-29T05:25:41;99358.88;;;7.33;49.02
60337;BME280;46978;50.288;28.624;2023-04-29T05:26:42;99363.17;;;7.36;48.90
60337;BME280;46978;50.288;28.624;2023-04-29T05:27:44;99371.75;;;7.40;48.44
60337;BME280;46978;50.288;28.624;2023-04-29T05:28:45;99364.84;;;7.43;48.52
60337;BME280;46978;50.288;28.624;2023-04-29T05:29:47;99354.48;;;7.49;49.21
60337;BME280;46978;50.288;28.624;2023-04-29T05:30:52;99375.97;;;7.58;49.14
60337;BME280;46978;50.288;28.624;2023-04-29T05:31:54;99363.88;;;7.63;48.37
60337;BME280;46978;50.288;28.624;2023-04-29T05:32:56;99363.86;;;7.66;48.08
60337;BME280;46978;50.288;28.624;2023-04-29T05:33:57;99362.11;;;7.69;47.01
60337;BME280;46978;50.288;28.624;2023-04-29T05:34:59;99359.47;;;7.77;47.31
60337;BME280;46978;50.288;28.624;2023-04-29T05:36:01;99360.33;;;7.81;47.25
60337;BME280;46978;50.288;28.624;2023-04-29T05:37:02;99358.53;;;7.90;46.96
60337;BME280;46978;50.288;28.624;2023-04-29T05:38:04;99357.57;;;8.01;47.41
60337;BME280;46978;50.288;28.624;2023-04-29T05:39:06;99361.79;;;8.13;46.57